Time,TemperatureF,DewpointF,PressureIn,WindDirection,WindDirectionDegrees,WindSpeedMPH,WindSpeedGustMPH,Humidity,HourlyPrecipIn,Conditions,Clouds,dailyrainin,SoftwareType,DateUTC
2013-02-11 00:01:00,24.0,24.0,-100.00,SSE,160,6.0,7.0,100,-99.99,,,-99.99,,2013-02-11 08:01:00,
2013-02-11 01:01:00,24.0,24.0,-100.00,SSE,160,7.0,9.0,100,-99.99,,,-99.99,,2013-02-11 09:01:00,
2013-02-11 01:12:00,24.0,24.0,-100.00,SSE,160,7.0,9.0,100,-99.99,,,-99.99,,2013-02-11 09:12:00,
2013-02-11 02:10:00,22.0,22.0,-100.00,SSE,155,7.0,7.0,100,-99.99,,,-99.99,,2013-02-11 10:10:00,
2013-02-11 03:01:00,22.0,22.0,-100.00,SSE,155,7.0,7.0,100,-99.99,,,-99.99,,2013-02-11 11:01:00,
2013-02-11 04:03:00,22.0,22.0,-100.00,SE,140,5.0,7.0,100,-99.99,,,-99.99,,2013-02-11 12:03:00,
2013-02-11 04:10:00,21.0,21.0,-100.00,SSE,150,6.0,7.0,100,-99.99,,,-99.99,,2013-02-11 12:10:00,
2013-02-11 04:12:00,22.0,22.0,-100.00,SE,140,5.0,7.0,100,-99.99,,,-99.99,,2013-02-11 12:12:00,
2013-02-11 05:01:00,21.0,21.0,-100.00,SSE,150,6.0,7.0,100,-99.99,,,-99.99,,2013-02-11 13:01:00,
2013-02-11 06:01:00,21.0,21.0,-100.00,SSE,165,5.0,6.0,100,-99.99,,,-99.99,,2013-02-11 14:01:00,
2013-02-11 06:11:00,21.0,21.0,-100.00,SSE,165,5.0,6.0,100,-99.99,,,-99.99,,2013-02-11 14:11:00,
2013-02-11 07:01:00,24.0,24.0,-100.00,SE,145,2.0,5.0,100,-99.99,,,-99.99,,2013-02-11 15:01:00,
2013-02-11 07:10:00,24.0,24.0,-100.00,East,100,3.0,6.0,100,-99.99,,,-99.99,,2013-02-11 15:10:00,
2013-02-11 07:11:00,24.0,24.0,-100.00,SE,145,2.0,5.0,100,-99.99,,,-99.99,,2013-02-11 15:11:00,
2013-02-11 08:01:00,24.0,24.0,-100.00,East,100,3.0,6.0,100,-99.99,,,-99.99,,2013-02-11 16:01:00,
2013-02-11 09:01:00,25.0,25.0,-100.00,ESE,115,2.0,3.0,100,-99.99,,,-99.99,,2013-02-11 17:01:00,
2013-02-11 09:11:00,25.0,25.0,-100.00,ESE,115,2.0,3.0,100,-99.99,,,-99.99,,2013-02-11 17:11:00,
2013-02-11 10:01:00,24.0,24.0,-100.00,North,-999,0.0,0.0,100,-99.99,,,-99.99,,2013-02-11 18:01:00,
2013-02-11 10:10:00,26.0,26.0,-100.00,North,-999,0.0,0.0,100,-99.99,,,-99.99,,2013-02-11 18:10:00,
2013-02-11 11:02:00,26.0,26.0,-100.00,North,-999,0.0,0.0,100,-99.99,,,-99.99,,2013-02-11 19:02:00,
2013-02-11 12:01:00,28.0,28.0,-100.00,North,-999,0.0,0.0,100,-99.99,,,-99.99,,2013-02-11 20:01:00,
2013-02-11 12:10:00,29.0,29.0,-100.00,North,-999,0.0,0.0,100,-99.99,,,-99.99,,2013-02-11 20:10:00,
2013-02-11 12:11:00,28.0,28.0,-100.00,North,-999,0.0,0.0,100,-99.99,,,-99.99,,2013-02-11 20:11:00,
2013-02-11 13:02:00,29.0,29.0,-100.00,North,-999,0.0,0.0,100,-99.99,,,-99.99,,2013-02-11 21:02:00,
2013-02-11 14:01:00,29.0,29.0,-100.00,North,-999,0.0,0.0,100,-99.99,,,-99.99,,2013-02-11 22:01:00,
2013-02-11 14:11:00,29.0,29.0,-100.00,North,-999,0.0,0.0,100,-99.99,,,-99.99,,2013-02-11 22:11:00,
2013-02-11 15:10:00,29.0,29.0,-100.00,North,-999,0.0,0.0,100,-99.99,,,-99.99,,2013-02-11 23:10:00,
2013-02-11 16:01:00,29.0,29.0,-100.00,North,-999,0.0,0.0,100,-99.99,,,-99.99,,2013-02-12 00:01:00,
2013-02-11 17:01:00,29.0,29.0,-100.00,North,-999,0.0,0.0,100,-99.99,,,-99.99,,2013-02-12 01:01:00,
2013-02-11 17:11:00,29.0,29.0,-100.00,North,-999,0.0,0.0,100,-99.99,,,-99.99,,2013-02-12 01:11:00,
2013-02-11 18:01:00,30.0,29.0,-100.00,North,-999,0.0,0.0,96,-99.99,,,-99.99,,2013-02-12 02:01:00,
2013-02-11 18:10:00,29.0,29.0,-100.00,North,-999,0.0,0.0,100,-99.99,,,-99.99,,2013-02-12 02:10:00,
2013-02-11 19:02:00,29.0,29.0,-100.00,North,-999,0.0,0.0,100,-99.99,,,-99.99,,2013-02-12 03:02:00,
2013-02-11 20:01:00,27.0,27.0,-100.00,North,-999,0.0,0.0,100,-99.99,,,-99.99,,2013-02-12 04:01:00,
2013-02-11 20:10:00,28.0,28.0,-100.00,North,-999,0.0,0.0,100,-99.99,,,-99.99,,2013-02-12 04:10:00,
2013-02-11 20:11:00,27.0,27.0,-100.00,North,-999,0.0,0.0,100,-99.99,,,-99.99,,2013-02-12 04:11:00,
2013-02-11 21:01:00,28.0,28.0,-100.00,North,-999,0.0,0.0,100,-99.99,,,-99.99,,2013-02-12 05:01:00,
2013-02-11 22:01:00,28.0,28.0,-100.00,North,-999,0.0,0.0,100,-99.99,,,-99.99,,2013-02-12 06:01:00,
2013-02-11 22:12:00,28.0,28.0,-100.00,North,-999,0.0,0.0,100,-99.99,,,-99.99,,2013-02-12 06:12:00,
2013-02-11 23:01:00,28.0,28.0,-100.00,North,-999,0.0,0.0,100,-99.99,,,-99.99,,2013-02-12 07:01:00,
2013-02-11 23:10:00,29.0,29.0,-100.00,North,-999,0.0,0.0,100,-99.99,,,-99.99,,2013-02-12 07:10:00,